Delta Virtual Airport Information Service

Barcelona El Prat Airport

ICAO: LEBL Country: Spain
Latitude: 41.2971 Longitude: 2.07846
Latest Arrival : UAL120 (KEWR-LEBL) Latest Departure : DALJUMP (LEBL-EHAM)


WX CaptureLIVE
Data provided by noaa.gov | Fetched at 17:55:56

METAR : LEBL 242230Z 24008KT 9999 FEW030 19/15 Q1027 NOSIG

TAF : LEBL 241700Z 2418/2518 VRB03KT 9999 SCT030 TX24/2512Z TN17/2506Z BECMG 2509/2511 22008KT


Runway Data for LEBL
Data provided by openaviationdata.com

Runway ID Mag Var Hdg Length Elevation Surface ILS Freq ILS Id ILS Slope
2 -1 19° 8333 ft 12 ft Asphalt 108.75 BLT 3
07L -1 66° 10997 ft 12 ft Asphalt 110.3 QAA 3
07R -1 66° 8727 ft 12 ft Asphalt 110.75 BLE 3
20 -1 199° 8333 ft 12 ft Asphalt -- -- --
25L -1 246° 8727 ft 12 ft Asphalt 111.5 BLW 3
25R -1 246° 10997 ft 12 ft Asphalt 109.5 BCA 3

Barcelona El Prat Airport, Spain
Use only for reference purposes



Not for navigational purposes.